sensor_id;sensor_type;location;lat;lon;timestamp;P1;durP1;ratioP1;P2;durP2;ratioP2
2824;SDS011;1420;51.324;12.344;2022-10-16T00:02:07;17.20;;;15.08;;
2824;SDS011;1420;51.324;12.344;2022-10-16T00:04:35;20.94;;;18.98;;
2824;SDS011;1420;51.324;12.344;2022-10-16T00:07:03;23.90;;;21.98;;
2824;SDS011;1420;51.324;12.344;2022-10-16T00:09:31;33.92;;;30.98;;
2824;SDS011;1420;51.324;12.344;2022-10-16T00:11:59;20.34;;;18.56;;
2824;SDS011;1420;51.324;12.344;2022-10-16T00:14:26;27.34;;;24.94;;
2824;SDS011;1420;51.324;12.344;2022-10-16T00:16:53;28.02;;;25.86;;
2824;SDS011;1420;51.324;12.344;2022-10-16T00:19:20;18.80;;;17.02;;
2824;SDS011;1420;51.324;12.344;2022-10-16T00:21:47;28.00;;;25.74;;
2824;SDS011;1420;51.324;12.344;2022-10-16T00:24:15;27.74;;;24.84;;
2824;SDS011;1420;51.324;12.344;2022-10-16T00:26:42;25.90;;;23.80;;
2824;SDS011;1420;51.324;12.344;2022-10-16T00:29:09;23.26;;;21.46;;
2824;SDS011;1420;51.324;12.344;2022-10-16T00:31:37;11.46;;;7.80;;
2824;SDS011;1420;51.324;12.344;2022-10-16T00:34:05;27.62;;;25.10;;
2824;SDS011;1420;51.324;12.344;2022-10-16T00:36:33;18.48;;;16.76;;
2824;SDS011;1420;51.324;12.344;2022-10-16T00:39:01;21.12;;;19.10;;
2824;SDS011;1420;51.324;12.344;2022-10-16T00:41:29;23.58;;;21.58;;
2824;SDS011;1420;51.324;12.344;2022-10-16T00:43:57;31.46;;;28.80;;
2824;SDS011;1420;51.324;12.344;2022-10-16T00:46:26;18.86;;;17.24;;
2824;SDS011;1420;51.324;12.344;2022-10-16T00:48:56;16.36;;;14.44;;
2824;SDS011;1420;51.324;12.344;2022-10-16T00:51:25;15.72;;;14.18;;
2824;SDS011;1420;51.324;12.344;2022-10-16T00:53:51;13.64;;;11.26;;
2824;SDS011;1420;51.324;12.344;2022-10-16T00:56:19;15.38;;;13.90;;
2824;SDS011;1420;51.324;12.344;2022-10-16T00:58:47;21.96;;;19.66;;
2824;SDS011;1420;51.324;12.344;2022-10-16T01:01:15;12.00;;;10.72;;
2824;SDS011;1420;51.324;12.344;2022-10-16T01:03:43;21.32;;;19.38;;
2824;SDS011;1420;51.324;12.344;2022-10-16T01:06:18;25.60;;;23.52;;
2824;SDS011;1420;51.324;12.344;2022-10-16T01:08:51;28.50;;;25.16;;
2824;SDS011;1420;51.324;12.344;2022-10-16T01:11:22;15.22;;;13.74;;
2824;SDS011;1420;51.324;12.344;2022-10-16T01:13:52;28.60;;;25.70;;
2824;SDS011;1420;51.324;12.344;2022-10-16T01:16:49;25.70;;;23.46;;
2824;SDS011;1420;51.324;12.344;2022-10-16T01:19:05;23.60;;;21.44;;
2824;SDS011;1420;51.324;12.344;2022-10-16T01:21:45;28.64;;;25.86;;
2824;SDS011;1420;51.324;12.344;2022-10-16T01:24:21;24.56;;;22.34;;
2824;SDS011;1420;51.324;12.344;2022-10-16T01:29:42;15.48;;;13.60;;
2824;SDS011;1420;51.324;12.344;2022-10-16T01:32:22;25.84;;;23.54;;
2824;SDS011;1420;51.324;12.344;2022-10-16T01:34:47;20.66;;;18.30;;
2824;SDS011;1420;51.324;12.344;2022-10-16T01:37:19;22.52;;;20.36;;
2824;SDS011;1420;51.324;12.344;2022-10-16T01:39:45;40.48;;;36.76;;
2824;SDS011;1420;51.324;12.344;2022-10-16T01:42:12;14.26;;;12.92;;
2824;SDS011;1420;51.324;12.344;2022-10-16T01:44:38;26.46;;;23.90;;
2824;SDS011;1420;51.324;12.344;2022-10-16T01:47:06;18.42;;;16.66;;
2824;SDS011;1420;51.324;12.344;2022-10-16T01:49:33;27.74;;;25.36;;
2824;SDS011;1420;51.324;12.344;2022-10-16T01:52:03;12.68;;;11.48;;
2824;SDS011;1420;51.324;12.344;2022-10-16T01:54:29;25.36;;;23.10;;
2824;SDS011;1420;51.324;12.344;2022-10-16T01:56:56;43.14;;;39.06;;
2824;SDS011;1420;51.324;12.344;2022-10-16T01:59:25;39.72;;;36.58;;
2824;SDS011;1420;51.324;12.344;2022-10-16T02:01:54;18.66;;;16.88;;
2824;SDS011;1420;51.324;12.344;2022-10-16T02:04:23;14.52;;;12.42;;
2824;SDS011;1420;51.324;12.344;2022-10-16T02:06:50;32.78;;;30.34;;
2824;SDS011;1420;51.324;12.344;2022-10-16T02:09:17;20.32;;;11.34;;
2824;SDS011;1420;51.324;12.344;2022-10-16T02:11:44;11.36;;;10.10;;
2824;SDS011;1420;51.324;12.344;2022-10-16T02:14:12;13.40;;;11.44;;
2824;SDS011;1420;51.324;12.344;2022-10-16T02:16:42;31.62;;;29.12;;
2824;SDS011;1420;51.324;12.344;2022-10-16T02:19:08;22.28;;;20.36;;
2824;SDS011;1420;51.324;12.344;2022-10-16T02:21:40;17.74;;;15.70;;
2824;SDS011;1420;51.324;12.344;2022-10-16T02:24:15;34.16;;;31.08;;
2824;SDS011;1420;51.324;12.344;2022-10-16T02:27:11;20.68;;;18.86;;
2824;SDS011;1420;51.324;12.344;2022-10-16T02:29:39;18.00;;;16.40;;
2824;SDS011;1420;51.324;12.344;2022-10-16T02:32:06;25.20;;;23.12;;
2824;SDS011;1420;51.324;12.344;2022-10-16T02:34:34;14.42;;;12.92;;
2824;SDS011;1420;51.324;12.344;2022-10-16T02:37:01;35.48;;;32.40;;
2824;SDS011;1420;51.324;12.344;2022-10-16T02:39:28;30.00;;;27.44;;
2824;SDS011;1420;51.324;12.344;2022-10-16T02:41:56;24.54;;;22.64;;
2824;SDS011;1420;51.324;12.344;2022-10-16T02:44:23;39.82;;;36.92;;
2824;SDS011;1420;51.324;12.344;2022-10-16T02:46:50;24.52;;;21.74;;
2824;SDS011;1420;51.324;12.344;2022-10-16T02:49:18;33.18;;;30.60;;
2824;SDS011;1420;51.324;12.344;2022-10-16T02:51:46;39.12;;;36.50;;
2824;SDS011;1420;51.324;12.344;2022-10-16T02:54:14;14.08;;;12.28;;
2824;SDS011;1420;51.324;12.344;2022-10-16T02:56:41;33.86;;;31.10;;
2824;SDS011;1420;51.324;12.344;2022-10-16T02:59:08;54.44;;;49.94;;
2824;SDS011;1420;51.324;12.344;2022-10-16T03:01:35;23.34;;;21.52;;
2824;SDS011;1420;51.324;12.344;2022-10-16T03:04:03;31.62;;;29.24;;
2824;SDS011;1420;51.324;12.344;2022-10-16T03:06:30;26.80;;;24.20;;
2824;SDS011;1420;51.324;12.344;2022-10-16T03:08:57;18.72;;;15.82;;
2824;SDS011;1420;51.324;12.344;2022-10-16T03:11:24;23.74;;;21.34;;
2824;SDS011;1420;51.324;12.344;2022-10-16T03:13:52;21.62;;;19.64;;
2824;SDS011;1420;51.324;12.344;2022-10-16T03:16:20;20.08;;;18.22;;
2824;SDS011;1420;51.324;12.344;2022-10-16T03:18:48;30.92;;;28.50;;
2824;SDS011;1420;51.324;12.344;2022-10-16T03:21:16;23.88;;;21.80;;
2824;SDS011;1420;51.324;12.344;2022-10-16T03:23:43;33.40;;;30.26;;
2824;SDS011;1420;51.324;12.344;2022-10-16T03:26:11;36.08;;;33.30;;
2824;SDS011;1420;51.324;12.344;2022-10-16T03:28:38;25.72;;;23.10;;
2824;SDS011;1420;51.324;12.344;2022-10-16T03:31:05;19.08;;;17.30;;
2824;SDS011;1420;51.324;12.344;2022-10-16T03:33:32;20.00;;;18.20;;
2824;SDS011;1420;51.324;12.344;2022-10-16T03:35:59;20.00;;;18.14;;
2824;SDS011;1420;51.324;12.344;2022-10-16T03:38:27;18.40;;;16.74;;
2824;SDS011;1420;51.324;12.344;2022-10-16T03:40:55;29.64;;;27.40;;
2824;SDS011;1420;51.324;12.344;2022-10-16T03:43:23;28.48;;;25.90;;
2824;SDS011;1420;51.324;12.344;2022-10-16T03:45:50;17.16;;;15.62;;
2824;SDS011;1420;51.324;12.344;2022-10-16T03:48:18;22.00;;;19.76;;
2824;SDS011;1420;51.324;12.344;2022-10-16T03:50:44;25.36;;;23.18;;
2824;SDS011;1420;51.324;12.344;2022-10-16T03:53:11;13.50;;;10.02;;
2824;SDS011;1420;51.324;12.344;2022-10-16T03:55:41;28.28;;;25.90;;
2824;SDS011;1420;51.324;12.344;2022-10-16T03:58:07;27.72;;;25.56;;
2824;SDS011;1420;51.324;12.344;2022-10-16T04:00:35;25.84;;;23.84;;
2824;SDS011;1420;51.324;12.344;2022-10-16T04:03:03;41.82;;;38.42;;
2824;SDS011;1420;51.324;12.344;2022-10-16T04:05:31;34.34;;;31.44;;
2824;SDS011;1420;51.324;12.344;2022-10-16T04:07:58;28.66;;;26.16;;
2824;SDS011;1420;51.324;12.344;2022-10-16T04:10:25;43.72;;;40.44;;
2824;SDS011;1420;51.324;12.344;2022-10-16T04:12:52;48.24;;;43.86;;
2824;SDS011;1420;51.324;12.344;2022-10-16T04:15:20;41.94;;;38.76;;
2824;SDS011;1420;51.324;12.344;2022-10-16T04:17:48;33.44;;;30.20;;
2824;SDS011;1420;51.324;12.344;2022-10-16T04:20:15;14.56;;;13.06;;
2824;SDS011;1420;51.324;12.344;2022-10-16T04:22:43;33.78;;;31.18;;
2824;SDS011;1420;51.324;12.344;2022-10-16T04:25:11;31.92;;;28.60;;
2824;SDS011;1420;51.324;12.344;2022-10-16T04:27:38;39.34;;;36.54;;
2824;SDS011;1420;51.324;12.344;2022-10-16T04:30:05;38.96;;;35.78;;
2824;SDS011;1420;51.324;12.344;2022-10-16T04:32:33;45.60;;;41.92;;
2824;SDS011;1420;51.324;12.344;2022-10-16T04:35:00;57.54;;;53.08;;
2824;SDS011;1420;51.324;12.344;2022-10-16T04:37:27;44.70;;;41.18;;
2824;SDS011;1420;51.324;12.344;2022-10-16T04:39:55;45.48;;;42.34;;
2824;SDS011;1420;51.324;12.344;2022-10-16T04:42:23;51.38;;;46.04;;
2824;SDS011;1420;51.324;12.344;2022-10-16T04:44:51;26.26;;;24.26;;
2824;SDS011;1420;51.324;12.344;2022-10-16T04:47:19;60.24;;;55.70;;
2824;SDS011;1420;51.324;12.344;2022-10-16T04:49:46;37.72;;;34.54;;
2824;SDS011;1420;51.324;12.344;2022-10-16T04:52:13;29.62;;;27.30;;
2824;SDS011;1420;51.324;12.344;2022-10-16T04:54:40;38.16;;;35.30;;
2824;SDS011;1420;51.324;12.344;2022-10-16T04:57:07;44.48;;;40.86;;
2824;SDS011;1420;51.324;12.344;2022-10-16T04:59:35;44.12;;;40.64;;
2824;SDS011;1420;51.324;12.344;2022-10-16T05:02:03;39.70;;;36.42;;
2824;SDS011;1420;51.324;12.344;2022-10-16T05:04:30;49.96;;;46.22;;
2824;SDS011;1420;51.324;12.344;2022-10-16T05:06:57;28.22;;;26.06;;
2824;SDS011;1420;51.324;12.344;2022-10-16T05:09:24;36.90;;;34.22;;
2824;SDS011;1420;51.324;12.344;2022-10-16T05:11:52;36.22;;;33.46;;
2824;SDS011;1420;51.324;12.344;2022-10-16T05:14:19;48.54;;;45.22;;
2824;SDS011;1420;51.324;12.344;2022-10-16T05:16:47;26.06;;;23.92;;
2824;SDS011;1420;51.324;12.344;2022-10-16T05:19:14;26.18;;;23.58;;
2824;SDS011;1420;51.324;12.344;2022-10-16T05:21:41;39.20;;;36.30;;
2824;SDS011;1420;51.324;12.344;2022-10-16T05:24:08;21.24;;;19.08;;
2824;SDS011;1420;51.324;12.344;2022-10-16T05:26:35;33.42;;;30.82;;
2824;SDS011;1420;51.324;12.344;2022-10-16T05:29:03;40.34;;;37.14;;
2824;SDS011;1420;51.324;12.344;2022-10-16T05:31:31;45.46;;;42.00;;
2824;SDS011;1420;51.324;12.344;2022-10-16T05:33:58;35.42;;;32.44;;
2824;SDS011;1420;51.324;12.344;2022-10-16T05:36:25;28.46;;;26.46;;
2824;SDS011;1420;51.324;12.344;2022-10-16T05:38:52;22.06;;;20.02;;
2824;SDS011;1420;51.324;12.344;2022-10-16T05:41:19;20.06;;;18.36;;
2824;SDS011;1420;51.324;12.344;2022-10-16T05:43:47;39.70;;;36.78;;
2824;SDS011;1420;51.324;12.344;2022-10-16T05:46:15;46.68;;;43.36;;
2824;SDS011;1420;51.324;12.344;2022-10-16T05:48:42;52.80;;;48.82;;
2824;SDS011;1420;51.324;12.344;2022-10-16T05:51:10;30.34;;;27.80;;
2824;SDS011;1420;51.324;12.344;2022-10-16T05:53:37;27.42;;;25.46;;
2824;SDS011;1420;51.324;12.344;2022-10-16T05:56:05;29.78;;;27.58;;
2824;SDS011;1420;51.324;12.344;2022-10-16T05:58:33;28.52;;;26.54;;
2824;SDS011;1420;51.324;12.344;2022-10-16T06:01:00;28.64;;;26.28;;
2824;SDS011;1420;51.324;12.344;2022-10-16T06:03:27;22.98;;;20.88;;
2824;SDS011;1420;51.324;12.344;2022-10-16T06:05:54;22.96;;;21.00;;
2824;SDS011;1420;51.324;12.344;2022-10-16T06:08:22;22.24;;;20.22;;
2824;SDS011;1420;51.324;12.344;2022-10-16T06:11:00;18.74;;;17.02;;
2824;SDS011;1420;51.324;12.344;2022-10-16T06:13:23;17.58;;;15.72;;
2824;SDS011;1420;51.324;12.344;2022-10-16T06:15:50;12.38;;;9.20;;
2824;SDS011;1420;51.324;12.344;2022-10-16T06:18:18;15.62;;;8.64;;
2824;SDS011;1420;51.324;12.344;2022-10-16T06:20:46;13.06;;;9.90;;
2824;SDS011;1420;51.324;12.344;2022-10-16T06:23:13;13.30;;;8.40;;
2824;SDS011;1420;51.324;12.344;2022-10-16T06:25:40;15.44;;;13.86;;
2824;SDS011;1420;51.324;12.344;2022-10-16T06:28:08;13.64;;;6.94;;
2824;SDS011;1420;51.324;12.344;2022-10-16T06:30:36;9.88;;;5.44;;
2824;SDS011;1420;51.324;12.344;2022-10-16T06:33:04;10.02;;;4.76;;
2824;SDS011;1420;51.324;12.344;2022-10-16T06:35:32;14.34;;;11.06;;
2824;SDS011;1420;51.324;12.344;2022-10-16T06:38:00;9.98;;;3.68;;
2824;SDS011;1420;51.324;12.344;2022-10-16T06:40:28;9.40;;;3.98;;
2824;SDS011;1420;51.324;12.344;2022-10-16T06:42:56;8.42;;;3.88;;
2824;SDS011;1420;51.324;12.344;2022-10-16T06:45:23;8.94;;;4.62;;
2824;SDS011;1420;51.324;12.344;2022-10-16T06:47:50;9.66;;;3.88;;
2824;SDS011;1420;51.324;12.344;2022-10-16T06:50:17;7.92;;;2.92;;
2824;SDS011;1420;51.324;12.344;2022-10-16T06:52:44;8.82;;;4.08;;
2824;SDS011;1420;51.324;12.344;2022-10-16T06:55:12;9.42;;;2.58;;
2824;SDS011;1420;51.324;12.344;2022-10-16T06:57:39;11.60;;;7.86;;
2824;SDS011;1420;51.324;12.344;2022-10-16T07:00:06;11.40;;;5.34;;
2824;SDS011;1420;51.324;12.344;2022-10-16T07:02:34;11.52;;;4.82;;
2824;SDS011;1420;51.324;12.344;2022-10-16T07:05:01;12.02;;;7.62;;
2824;SDS011;1420;51.324;12.344;2022-10-16T07:07:29;10.12;;;6.46;;
2824;SDS011;1420;51.324;12.344;2022-10-16T07:09:57;12.52;;;11.20;;
2824;SDS011;1420;51.324;12.344;2022-10-16T07:12:24;14.94;;;10.36;;
2824;SDS011;1420;51.324;12.344;2022-10-16T07:14:51;14.22;;;12.34;;
2824;SDS011;1420;51.324;12.344;2022-10-16T07:17:18;10.02;;;4.92;;
2824;SDS011;1420;51.324;12.344;2022-10-16T07:19:46;8.50;;;2.42;;
2824;SDS011;1420;51.324;12.344;2022-10-16T07:22:13;10.34;;;5.70;;
2824;SDS011;1420;51.324;12.344;2022-10-16T07:24:40;10.94;;;6.54;;
2824;SDS011;1420;51.324;12.344;2022-10-16T07:27:07;13.98;;;8.76;;
2824;SDS011;1420;51.324;12.344;2022-10-16T07:29:34;10.50;;;8.64;;
2824;SDS011;1420;51.324;12.344;2022-10-16T07:32:02;12.92;;;8.06;;
2824;SDS011;1420;51.324;12.344;2022-10-16T07:34:30;10.32;;;7.78;;
2824;SDS011;1420;51.324;12.344;2022-10-16T07:36:58;11.10;;;3.16;;
2824;SDS011;1420;51.324;12.344;2022-10-16T07:39:26;9.26;;;4.68;;
2824;SDS011;1420;51.324;12.344;2022-10-16T07:41:54;12.60;;;9.22;;
2824;SDS011;1420;51.324;12.344;2022-10-16T07:44:22;8.58;;;3.42;;
2824;SDS011;1420;51.324;12.344;2022-10-16T07:46:50;10.10;;;5.16;;
2824;SDS011;1420;51.324;12.344;2022-10-16T07:49:18;11.86;;;8.46;;
2824;SDS011;1420;51.324;12.344;2022-10-16T07:51:45;6.80;;;1.52;;
2824;SDS011;1420;51.324;12.344;2022-10-16T07:54:13;7.58;;;4.10;;
2824;SDS011;1420;51.324;12.344;2022-10-16T07:56:41;7.84;;;2.52;;
2824;SDS011;1420;51.324;12.344;2022-10-16T07:59:09;7.14;;;2.50;;
2824;SDS011;1420;51.324;12.344;2022-10-16T08:01:37;7.30;;;2.04;;
2824;SDS011;1420;51.324;12.344;2022-10-16T08:04:05;5.90;;;1.32;;
2824;SDS011;1420;51.324;12.344;2022-10-16T08:06:35;8.50;;;1.88;;
2824;SDS011;1420;51.324;12.344;2022-10-16T08:09:00;6.78;;;0.80;;
2824;SDS011;1420;51.324;12.344;2022-10-16T08:11:27;5.52;;;0.70;;
2824;SDS011;1420;51.324;12.344;2022-10-16T08:13:54;5.90;;;0.70;;
2824;SDS011;1420;51.324;12.344;2022-10-16T08:16:21;5.84;;;0.92;;
2824;SDS011;1420;51.324;12.344;2022-10-16T08:18:49;6.68;;;0.96;;
2824;SDS011;1420;51.324;12.344;2022-10-16T08:21:17;11.00;;;2.80;;
2824;SDS011;1420;51.324;12.344;2022-10-16T08:23:43;7.48;;;0.88;;
2824;SDS011;1420;51.324;12.344;2022-10-16T08:26:11;9.86;;;2.46;;
2824;SDS011;1420;51.324;12.344;2022-10-16T08:28:39;10.16;;;4.44;;
2824;SDS011;1420;51.324;12.344;2022-10-16T08:31:10;11.52;;;6.90;;
2824;SDS011;1420;51.324;12.344;2022-10-16T08:33:40;10.26;;;4.96;;
2824;SDS011;1420;51.324;12.344;2022-10-16T08:36:09;11.00;;;7.60;;
2824;SDS011;1420;51.324;12.344;2022-10-16T08:38:35;12.76;;;7.36;;
2824;SDS011;1420;51.324;12.344;2022-10-16T08:41:13;12.14;;;8.18;;
2824;SDS011;1420;51.324;12.344;2022-10-16T08:43:54;9.82;;;5.44;;
2824;SDS011;1420;51.324;12.344;2022-10-16T08:46:22;9.14;;;4.34;;
2824;SDS011;1420;51.324;12.344;2022-10-16T08:48:51;9.96;;;4.82;;
2824;SDS011;1420;51.324;12.344;2022-10-16T08:51:19;10.32;;;6.52;;
2824;SDS011;1420;51.324;12.344;2022-10-16T08:53:49;7.70;;;3.06;;
2824;SDS011;1420;51.324;12.344;2022-10-16T08:56:14;8.38;;;3.56;;
2824;SDS011;1420;51.324;12.344;2022-10-16T08:58:41;7.68;;;1.46;;
2824;SDS011;1420;51.324;12.344;2022-10-16T09:01:11;7.80;;;1.10;;
2824;SDS011;1420;51.324;12.344;2022-10-16T09:03:53;9.40;;;2.64;;
2824;SDS011;1420;51.324;12.344;2022-10-16T09:06:26;8.54;;;2.22;;
2824;SDS011;1420;51.324;12.344;2022-10-16T09:08:58;10.32;;;4.42;;
2824;SDS011;1420;51.324;12.344;2022-10-16T09:12:29;8.98;;;4.44;;
2824;SDS011;1420;51.324;12.344;2022-10-16T09:16:58;7.16;;;1.72;;
2824;SDS011;1420;51.324;12.344;2022-10-16T09:19:31;7.64;;;2.28;;
2824;SDS011;1420;51.324;12.344;2022-10-16T09:21:59;8.06;;;2.24;;
2824;SDS011;1420;51.324;12.344;2022-10-16T09:24:25;8.36;;;2.58;;
2824;SDS011;1420;51.324;12.344;2022-10-16T09:26:52;7.80;;;1.72;;
2824;SDS011;1420;51.324;12.344;2022-10-16T09:29:20;8.18;;;2.92;;
2824;SDS011;1420;51.324;12.344;2022-10-16T09:31:48;9.88;;;2.94;;
2824;SDS011;1420;51.324;12.344;2022-10-16T09:34:34;8.00;;;2.42;;
2824;SDS011;1420;51.324;12.344;2022-10-16T09:37:03;9.02;;;3.66;;
2824;SDS011;1420;51.324;12.344;2022-10-16T09:39:28;8.10;;;2.86;;
2824;SDS011;1420;51.324;12.344;2022-10-16T09:41:55;8.22;;;2.82;;
2824;SDS011;1420;51.324;12.344;2022-10-16T09:44:28;8.00;;;2.54;;
2824;SDS011;1420;51.324;12.344;2022-10-16T09:49:27;7.64;;;1.86;;
2824;SDS011;1420;51.324;12.344;2022-10-16T09:54:30;8.84;;;2.40;;
2824;SDS011;1420;51.324;12.344;2022-10-16T09:57:04;9.34;;;4.14;;
2824;SDS011;1420;51.324;12.344;2022-10-16T09:59:31;9.26;;;4.26;;
2824;SDS011;1420;51.324;12.344;2022-10-16T10:02:02;9.48;;;3.76;;
2824;SDS011;1420;51.324;12.344;2022-10-16T10:04:37;12.42;;;8.58;;
2824;SDS011;1420;51.324;12.344;2022-10-16T10:06:56;9.16;;;5.12;;
2824;SDS011;1420;51.324;12.344;2022-10-16T10:09:24;8.32;;;1.48;;
2824;SDS011;1420;51.324;12.344;2022-10-16T10:11:54;8.12;;;3.62;;
2824;SDS011;1420;51.324;12.344;2022-10-16T10:14:22;8.44;;;3.68;;
2824;SDS011;1420;51.324;12.344;2022-10-16T10:16:48;8.84;;;3.94;;
2824;SDS011;1420;51.324;12.344;2022-10-16T10:19:16;9.90;;;1.78;;
2824;SDS011;1420;51.324;12.344;2022-10-16T10:21:44;10.20;;;4.04;;
2824;SDS011;1420;51.324;12.344;2022-10-16T10:24:12;11.62;;;5.80;;
2824;SDS011;1420;51.324;12.344;2022-10-16T10:26:44;10.36;;;5.36;;
2824;SDS011;1420;51.324;12.344;2022-10-16T10:32:04;9.62;;;5.88;;
2824;SDS011;1420;51.324;12.344;2022-10-16T10:34:39;10.32;;;6.02;;
2824;SDS011;1420;51.324;12.344;2022-10-16T10:37:22;10.18;;;5.92;;
2824;SDS011;1420;51.324;12.344;2022-10-16T10:40:02;11.00;;;6.02;;
2824;SDS011;1420;51.324;12.344;2022-10-16T10:42:29;11.06;;;6.34;;
2824;SDS011;1420;51.324;12.344;2022-10-16T10:45:11;10.70;;;5.32;;
2824;SDS011;1420;51.324;12.344;2022-10-16T10:47:47;11.44;;;8.24;;
2824;SDS011;1420;51.324;12.344;2022-10-16T10:50:35;11.08;;;6.22;;
2824;SDS011;1420;51.324;12.344;2022-10-16T10:53:35;12.02;;;8.76;;
2824;SDS011;1420;51.324;12.344;2022-10-16T11:01:12;10.24;;;4.92;;
2824;SDS011;1420;51.324;12.344;2022-10-16T11:06:32;9.92;;;6.62;;
2824;SDS011;1420;51.324;12.344;2022-10-16T11:09:01;9.50;;;3.36;;
2824;SDS011;1420;51.324;12.344;2022-10-16T11:14:15;10.64;;;5.60;;
2824;SDS011;1420;51.324;12.344;2022-10-16T11:16:54;11.68;;;6.62;;
2824;SDS011;1420;51.324;12.344;2022-10-16T11:22:03;9.38;;;3.52;;
2824;SDS011;1420;51.324;12.344;2022-10-16T11:24:49;9.24;;;4.42;;
2824;SDS011;1420;51.324;12.344;2022-10-16T11:27:17;9.74;;;3.90;;
2824;SDS011;1420;51.324;12.344;2022-10-16T11:29:46;9.34;;;3.94;;
2824;SDS011;1420;51.324;12.344;2022-10-16T11:32:22;9.48;;;3.48;;
2824;SDS011;1420;51.324;12.344;2022-10-16T11:34:55;8.72;;;3.84;;
2824;SDS011;1420;51.324;12.344;2022-10-16T11:37:23;10.08;;;5.16;;
2824;SDS011;1420;51.324;12.344;2022-10-16T11:39:48;9.28;;;4.44;;
2824;SDS011;1420;51.324;12.344;2022-10-16T11:42:18;8.60;;;5.30;;
2824;SDS011;1420;51.324;12.344;2022-10-16T11:44:48;9.36;;;3.84;;
2824;SDS011;1420;51.324;12.344;2022-10-16T11:47:27;8.30;;;2.78;;
2824;SDS011;1420;51.324;12.344;2022-10-16T11:49:59;9.18;;;5.10;;
2824;SDS011;1420;51.324;12.344;2022-10-16T11:52:28;8.52;;;3.02;;
2824;SDS011;1420;51.324;12.344;2022-10-16T11:54:56;8.64;;;5.40;;
2824;SDS011;1420;51.324;12.344;2022-10-16T11:57:27;9.48;;;4.24;;
2824;SDS011;1420;51.324;12.344;2022-10-16T11:59:57;12.58;;;6.14;;
2824;SDS011;1420;51.324;12.344;2022-10-16T12:02:28;10.54;;;5.90;;
2824;SDS011;1420;51.324;12.344;2022-10-16T12:04:59;11.10;;;6.04;;
2824;SDS011;1420;51.324;12.344;2022-10-16T12:07:27;10.56;;;5.06;;
2824;SDS011;1420;51.324;12.344;2022-10-16T12:09:52;12.82;;;7.10;;
2824;SDS011;1420;51.324;12.344;2022-10-16T12:12:23;9.72;;;5.76;;
2824;SDS011;1420;51.324;12.344;2022-10-16T12:14:59;10.78;;;5.50;;
2824;SDS011;1420;51.324;12.344;2022-10-16T12:17:35;10.84;;;5.90;;
2824;SDS011;1420;51.324;12.344;2022-10-16T12:22:48;8.96;;;3.42;;
2824;SDS011;1420;51.324;12.344;2022-10-16T12:25:31;10.38;;;6.96;;
2824;SDS011;1420;51.324;12.344;2022-10-16T12:28:04;9.00;;;4.98;;
2824;SDS011;1420;51.324;12.344;2022-10-16T12:30:34;11.40;;;6.64;;
2824;SDS011;1420;51.324;12.344;2022-10-16T12:33:01;8.80;;;3.04;;
2824;SDS011;1420;51.324;12.344;2022-10-16T12:35:29;11.36;;;8.50;;
2824;SDS011;1420;51.324;12.344;2022-10-16T12:38:04;9.94;;;5.78;;
2824;SDS011;1420;51.324;12.344;2022-10-16T12:40:29;9.78;;;4.80;;
2824;SDS011;1420;51.324;12.344;2022-10-16T12:42:56;11.92;;;9.70;;
2824;SDS011;1420;51.324;12.344;2022-10-16T12:45:24;11.46;;;9.16;;
2824;SDS011;1420;51.324;12.344;2022-10-16T12:47:54;12.46;;;9.02;;
2824;SDS011;1420;51.324;12.344;2022-10-16T12:50:23;11.70;;;9.06;;
2824;SDS011;1420;51.324;12.344;2022-10-16T12:52:50;10.52;;;5.30;;
2824;SDS011;1420;51.324;12.344;2022-10-16T12:55:18;9.62;;;5.92;;
2824;SDS011;1420;51.324;12.344;2022-10-16T12:57:56;9.82;;;5.70;;
2824;SDS011;1420;51.324;12.344;2022-10-16T13:00:22;10.38;;;6.92;;
2824;SDS011;1420;51.324;12.344;2022-10-16T13:02:49;9.36;;;4.68;;
2824;SDS011;1420;51.324;12.344;2022-10-16T13:08:16;11.60;;;6.00;;
2824;SDS011;1420;51.324;12.344;2022-10-16T13:10:41;9.88;;;5.32;;
2824;SDS011;1420;51.324;12.344;2022-10-16T13:13:16;9.62;;;5.36;;
2824;SDS011;1420;51.324;12.344;2022-10-16T13:21:38;11.60;;;6.28;;
2824;SDS011;1420;51.324;12.344;2022-10-16T13:23:57;11.78;;;8.36;;
2824;SDS011;1420;51.324;12.344;2022-10-16T13:26:37;13.50;;;7.74;;
2824;SDS011;1420;51.324;12.344;2022-10-16T13:29:19;9.98;;;5.72;;
2824;SDS011;1420;51.324;12.344;2022-10-16T13:31:46;13.04;;;8.50;;
2824;SDS011;1420;51.324;12.344;2022-10-16T13:34:16;12.68;;;8.88;;
2824;SDS011;1420;51.324;12.344;2022-10-16T13:36:45;10.72;;;4.58;;
2824;SDS011;1420;51.324;12.344;2022-10-16T13:39:21;11.38;;;7.54;;
2824;SDS011;1420;51.324;12.344;2022-10-16T13:44:35;11.04;;;8.46;;
2824;SDS011;1420;51.324;12.344;2022-10-16T13:46:59;9.10;;;5.20;;
2824;SDS011;1420;51.324;12.344;2022-10-16T13:49:26;10.48;;;7.76;;
2824;SDS011;1420;51.324;12.344;2022-10-16T13:51:54;11.14;;;9.12;;
2824;SDS011;1420;51.324;12.344;2022-10-16T13:54:21;11.80;;;9.80;;
2824;SDS011;1420;51.324;12.344;2022-10-16T13:56:48;9.68;;;5.28;;
2824;SDS011;1420;51.324;12.344;2022-10-16T13:59:22;10.14;;;6.74;;
2824;SDS011;1420;51.324;12.344;2022-10-16T14:01:49;9.42;;;3.84;;
2824;SDS011;1420;51.324;12.344;2022-10-16T14:04:17;10.36;;;7.14;;
2824;SDS011;1420;51.324;12.344;2022-10-16T14:06:46;10.76;;;4.80;;
2824;SDS011;1420;51.324;12.344;2022-10-16T14:09:22;12.64;;;9.20;;
2824;SDS011;1420;51.324;12.344;2022-10-16T14:11:51;11.68;;;7.20;;
2824;SDS011;1420;51.324;12.344;2022-10-16T14:14:19;8.56;;;3.74;;
2824;SDS011;1420;51.324;12.344;2022-10-16T14:16:46;12.52;;;7.76;;
2824;SDS011;1420;51.324;12.344;2022-10-16T14:19:28;9.48;;;5.84;;
2824;SDS011;1420;51.324;12.344;2022-10-16T14:21:55;10.54;;;6.30;;
2824;SDS011;1420;51.324;12.344;2022-10-16T14:24:27;10.88;;;6.08;;
2824;SDS011;1420;51.324;12.344;2022-10-16T14:26:53;8.90;;;3.02;;
2824;SDS011;1420;51.324;12.344;2022-10-16T14:29:22;10.46;;;6.90;;
2824;SDS011;1420;51.324;12.344;2022-10-16T14:31:56;10.72;;;7.18;;
2824;SDS011;1420;51.324;12.344;2022-10-16T14:34:23;12.22;;;7.96;;
2824;SDS011;1420;51.324;12.344;2022-10-16T14:36:54;11.34;;;6.72;;
2824;SDS011;1420;51.324;12.344;2022-10-16T14:39:21;14.78;;;10.32;;
2824;SDS011;1420;51.324;12.344;2022-10-16T14:41:49;10.32;;;8.66;;
2824;SDS011;1420;51.324;12.344;2022-10-16T14:44:17;10.14;;;6.72;;
2824;SDS011;1420;51.324;12.344;2022-10-16T14:46:44;11.26;;;7.78;;
2824;SDS011;1420;51.324;12.344;2022-10-16T14:49:14;12.06;;;8.38;;
2824;SDS011;1420;51.324;12.344;2022-10-16T14:51:43;11.50;;;5.92;;
2824;SDS011;1420;51.324;12.344;2022-10-16T14:54:11;12.02;;;7.96;;
2824;SDS011;1420;51.324;12.344;2022-10-16T14:56:43;11.76;;;5.82;;
2824;SDS011;1420;51.324;12.344;2022-10-16T14:59:14;8.70;;;3.30;;
2824;SDS011;1420;51.324;12.344;2022-10-16T15:01:57;11.72;;;6.40;;
2824;SDS011;1420;51.324;12.344;2022-10-16T15:04:24;9.82;;;5.42;;
2824;SDS011;1420;51.324;12.344;2022-10-16T15:06:52;10.90;;;6.36;;
2824;SDS011;1420;51.324;12.344;2022-10-16T15:09:20;11.96;;;7.86;;
2824;SDS011;1420;51.324;12.344;2022-10-16T15:11:48;10.84;;;8.60;;
2824;SDS011;1420;51.324;12.344;2022-10-16T15:14:16;10.56;;;7.78;;
2824;SDS011;1420;51.324;12.344;2022-10-16T15:16:44;10.64;;;7.98;;
2824;SDS011;1420;51.324;12.344;2022-10-16T15:19:12;13.46;;;11.22;;
2824;SDS011;1420;51.324;12.344;2022-10-16T15:21:40;11.02;;;8.34;;
2824;SDS011;1420;51.324;12.344;2022-10-16T15:24:09;11.20;;;8.20;;
2824;SDS011;1420;51.324;12.344;2022-10-16T15:26:36;11.14;;;7.26;;
2824;SDS011;1420;51.324;12.344;2022-10-16T15:29:04;13.12;;;10.60;;
2824;SDS011;1420;51.324;12.344;2022-10-16T15:31:32;13.30;;;8.14;;
2824;SDS011;1420;51.324;12.344;2022-10-16T15:33:59;10.92;;;9.26;;
2824;SDS011;1420;51.324;12.344;2022-10-16T15:36:27;16.04;;;13.82;;
2824;SDS011;1420;51.324;12.344;2022-10-16T15:38:54;13.26;;;11.56;;